createdAt,value
2017-12-08T00:00:19.350Z,46.70
2017-12-08T00:02:47.868Z,46.50
2017-12-08T00:05:15.601Z,41.97
2017-12-08T00:07:44.087Z,46.80
2017-12-08T00:10:11.875Z,56.70
2017-12-08T00:12:39.604Z,45.87
2017-12-08T00:15:07.383Z,49.93
2017-12-08T00:17:35.160Z,51.00
2017-12-08T00:20:02.984Z,44.87
2017-12-08T00:22:30.786Z,46.83
2017-12-08T00:24:59.357Z,41.90
2017-12-08T00:27:27.140Z,48.83
2017-12-08T00:29:54.881Z,47.13
2017-12-08T00:32:23.315Z,46.07
2017-12-08T00:34:51.117Z,44.63
2017-12-08T00:37:18.946Z,49.43
2017-12-08T00:39:46.758Z,47.80
2017-12-08T00:42:14.499Z,45.47
2017-12-08T00:44:42.241Z,44.57
2017-12-08T00:47:10.033Z,50.40
2017-12-08T00:49:37.867Z,50.40
2017-12-08T00:52:05.651Z,49.33
2017-12-08T00:54:33.391Z,47.17
2017-12-08T00:57:01.121Z,51.27
2017-12-08T00:59:28.900Z,54.03
2017-12-08T01:01:56.642Z,46.90
2017-12-08T01:04:24.373Z,49.97
2017-12-08T01:06:52.102Z,46.90
2017-12-08T01:09:19.878Z,59.83
2017-12-08T01:11:47.664Z,57.97
2017-12-08T01:14:16.152Z,48.33
2017-12-08T01:16:43.929Z,64.73
2017-12-08T01:19:11.751Z,59.17
2017-12-08T01:21:39.495Z,54.73
2017-12-08T01:24:07.280Z,56.53
2017-12-08T01:26:35.073Z,49.50
2017-12-08T01:29:02.858Z,45.10
2017-12-08T01:31:30.611Z,49.27
2017-12-08T01:33:58.382Z,46.50
2017-12-08T01:36:26.186Z,48.10
2017-12-08T01:38:53.912Z,50.80
2017-12-08T01:41:21.680Z,48.10
2017-12-08T01:43:49.524Z,44.10
2017-12-08T01:46:17.332Z,46.73
2017-12-08T01:48:45.080Z,47.47
2017-12-08T01:51:13.607Z,50.50
2017-12-08T01:53:41.400Z,51.20
2017-12-08T01:56:09.149Z,52.60
2017-12-08T01:58:37.085Z,50.87
2017-12-08T02:01:04.824Z,54.17
2017-12-08T02:03:33.319Z,52.53
2017-12-08T02:06:01.065Z,47.43
2017-12-08T02:08:28.863Z,49.87
2017-12-08T02:10:56.762Z,48.10
2017-12-08T02:13:24.507Z,48.23
2017-12-08T02:15:52.299Z,49.40
2017-12-08T02:18:20.030Z,44.17
2017-12-08T02:20:47.851Z,64.23
2017-12-08T02:23:15.634Z,53.47
2017-12-08T02:25:43.427Z,55.10
2017-12-08T02:28:12.021Z,54.27
2017-12-08T02:30:39.810Z,50.70
2017-12-08T02:33:07.615Z,49.53
2017-12-08T02:35:35.413Z,49.60
2017-12-08T02:38:03.899Z,48.27
2017-12-08T02:40:31.729Z,47.07
2017-12-08T02:42:59.483Z,59.80
2017-12-08T02:45:27.244Z,48.77
2017-12-08T02:47:55.025Z,53.40
2017-12-08T02:50:22.808Z,48.60
2017-12-08T02:52:50.606Z,52.13
2017-12-08T02:55:18.401Z,49.57
2017-12-08T02:57:46.133Z,43.23
2017-12-08T03:00:13.959Z,48.30
2017-12-08T03:02:41.755Z,46.93
2017-12-08T03:05:10.307Z,49.87
2017-12-08T03:07:38.090Z,47.70
2017-12-08T03:10:05.918Z,47.80
2017-12-08T03:12:33.678Z,46.70
2017-12-08T03:15:01.416Z,49.00
2017-12-08T03:17:29.238Z,49.73
2017-12-08T03:19:56.967Z,50.33
2017-12-08T03:22:24.743Z,48.43
2017-12-08T03:24:52.596Z,46.93
2017-12-08T03:27:20.368Z,53.77
2017-12-08T03:29:48.159Z,47.53
2017-12-08T03:32:15.943Z,50.13
2017-12-08T03:34:43.759Z,51.77
2017-12-08T03:37:11.531Z,50.07
2017-12-08T03:39:39.319Z,50.90
2017-12-08T03:42:07.152Z,52.07
2017-12-08T03:44:34.954Z,58.90
2017-12-08T03:47:03.669Z,51.90
2017-12-08T03:49:31.467Z,53.30
2017-12-08T03:51:59.965Z,54.60
2017-12-08T03:54:27.693Z,60.20
2017-12-08T03:56:55.498Z,54.57
2017-12-08T03:59:23.264Z,55.37
2017-12-08T04:01:51.073Z,52.20
2017-12-08T04:04:18.864Z,55.20
2017-12-08T04:06:46.669Z,58.03
2017-12-08T04:09:14.454Z,69.33
2017-12-08T04:11:42.181Z,63.57
2017-12-08T04:14:09.974Z,66.03
2017-12-08T04:16:37.786Z,72.13
2017-12-08T04:19:05.507Z,63.00
2017-12-08T04:21:33.294Z,70.87
2017-12-08T04:24:01.075Z,67.90
2017-12-08T04:26:28.864Z,65.90
2017-12-08T04:28:56.651Z,71.80
2017-12-08T04:31:24.578Z,67.17
2017-12-08T04:33:52.331Z,72.27
2017-12-08T04:36:20.099Z,66.27
2017-12-08T04:38:47.886Z,72.53
2017-12-08T04:41:15.711Z,68.50
2017-12-08T04:43:43.530Z,72.77
2017-12-08T04:46:11.318Z,72.07
2017-12-08T04:48:39.130Z,71.73
2017-12-08T04:51:06.895Z,69.03
2017-12-08T04:53:34.706Z,70.43
2017-12-08T04:56:02.424Z,68.67
2017-12-08T04:58:30.177Z,77.10
2017-12-08T05:00:58.825Z,65.20
2017-12-08T05:03:26.652Z,66.40
2017-12-08T05:05:54.462Z,71.27
2017-12-08T05:08:22.315Z,72.53
2017-12-08T05:10:50.298Z,76.57
2017-12-08T05:13:18.045Z,75.77
2017-12-08T05:15:45.784Z,63.00
2017-12-08T05:18:13.545Z,76.90
2017-12-08T05:20:41.296Z,69.47
2017-12-08T05:23:09.804Z,69.90
2017-12-08T05:25:37.571Z,74.07
2017-12-08T05:28:05.334Z,69.93
2017-12-08T05:30:33.118Z,72.37
2017-12-08T05:33:00.900Z,69.17
2017-12-08T05:35:28.708Z,70.67
2017-12-08T05:37:56.595Z,72.80
2017-12-08T05:40:25.090Z,78.10
2017-12-08T05:42:52.821Z,70.17
2017-12-08T05:45:20.565Z,73.67
2017-12-08T05:47:48.370Z,73.43
2017-12-08T05:50:16.095Z,73.83
2017-12-08T05:52:43.879Z,70.73
2017-12-08T05:55:11.612Z,71.47
2017-12-08T05:57:39.417Z,69.40
2017-12-08T06:00:07.224Z,56.07
2017-12-08T06:02:34.962Z,64.13
2017-12-08T06:05:02.758Z,51.03
2017-12-08T06:07:30.558Z,53.00
2017-12-08T06:09:58.377Z,52.03
2017-12-08T06:12:26.170Z,52.53
2017-12-08T06:14:54.003Z,53.20
2017-12-08T06:17:22.584Z,52.17
2017-12-08T06:19:50.303Z,52.70
2017-12-08T06:22:18.036Z,53.07
2017-12-08T06:24:45.827Z,58.13
2017-12-08T06:27:13.601Z,56.80
2017-12-08T06:29:41.319Z,58.17
2017-12-08T06:32:09.117Z,60.43
2017-12-08T06:34:36.924Z,62.27
2017-12-08T06:37:04.652Z,59.20
2017-12-08T06:39:32.442Z,55.50
2017-12-08T06:42:00.252Z,56.50
2017-12-08T06:44:27.967Z,57.93
2017-12-08T06:46:55.745Z,61.17
2017-12-08T06:49:23.590Z,61.83
2017-12-08T06:51:51.329Z,63.10
2017-12-08T06:54:19.103Z,61.37
2017-12-08T06:56:46.860Z,68.27
2017-12-08T06:59:14.576Z,62.83
2017-12-08T07:01:42.347Z,57.37
2017-12-08T07:04:10.076Z,60.90
2017-12-08T07:06:37.873Z,56.43
2017-12-08T07:09:05.852Z,66.87
2017-12-08T07:11:37.463Z,58.93
2017-12-08T07:14:05.324Z,64.73
2017-12-08T07:16:33.880Z,61.37
2017-12-08T07:19:01.641Z,60.60
2017-12-08T07:21:29.424Z,58.07
2017-12-08T07:23:57.263Z,62.23
2017-12-08T07:26:25.547Z,66.20
2017-12-08T07:28:53.358Z,60.27
2017-12-08T07:31:21.199Z,65.93
2017-12-08T07:33:48.986Z,62.03
2017-12-08T07:36:17.493Z,54.43
2017-12-08T07:38:45.538Z,61.10
2017-12-08T07:41:13.443Z,60.37
2017-12-08T07:43:41.182Z,60.70
2017-12-08T07:46:09.031Z,60.00
2017-12-08T07:48:36.827Z,57.73
2017-12-08T07:51:04.619Z,61.83
2017-12-08T07:53:32.433Z,61.13
2017-12-08T07:56:00.204Z,57.57
2017-12-08T07:58:27.997Z,61.67
2017-12-08T08:00:55.715Z,59.47
2017-12-08T08:03:23.534Z,70.47
2017-12-08T08:05:51.312Z,58.97
2017-12-08T08:08:19.221Z,73.70
2017-12-08T08:10:46.959Z,66.67
2017-12-08T08:13:14.858Z,61.83
2017-12-08T08:15:42.710Z,61.40
2017-12-08T08:18:11.637Z,63.50
2017-12-08T08:20:40.755Z,80.67
2017-12-08T08:23:08.830Z,64.47
2017-12-08T08:28:23.335Z,65.17
2017-12-08T08:31:00.504Z,75.33
2017-12-08T08:33:28.476Z,70.83
2017-12-08T08:35:56.342Z,65.47
2017-12-08T08:38:24.123Z,68.73
2017-12-08T08:40:52.332Z,69.77
2017-12-08T08:43:20.111Z,81.53
2017-12-08T08:45:47.864Z,80.33
2017-12-08T08:48:15.843Z,82.90
2017-12-08T08:50:43.629Z,73.90
2017-12-08T08:53:11.542Z,72.30
2017-12-08T08:55:39.356Z,69.53
2017-12-08T08:58:07.773Z,61.23
2017-12-08T09:00:35.592Z,69.70
2017-12-08T09:03:04.249Z,72.03
2017-12-08T09:05:32.012Z,72.67
2017-12-08T09:07:59.800Z,68.80
2017-12-08T09:10:27.607Z,70.13
2017-12-08T09:12:55.441Z,70.63
2017-12-08T09:15:23.325Z,76.50
2017-12-08T09:17:51.139Z,73.37
2017-12-08T09:20:18.881Z,68.30
2017-12-08T09:22:46.627Z,72.33
2017-12-08T09:25:14.380Z,69.77
2017-12-08T09:27:42.325Z,75.47
2017-12-08T09:30:10.126Z,73.20
2017-12-08T09:32:37.943Z,68.17
2017-12-08T09:35:06.012Z,73.50
2017-12-08T09:37:33.898Z,72.30
2017-12-08T09:40:01.822Z,75.60
2017-12-08T09:42:29.577Z,81.33
2017-12-08T09:44:57.371Z,81.70
2017-12-08T09:47:25.154Z,79.13
2017-12-08T09:49:53.670Z,76.50
2017-12-08T09:52:21.450Z,89.97
2017-12-08T09:54:49.219Z,87.00
2017-12-08T09:57:17.260Z,86.97
2017-12-08T09:59:45.004Z,87.53
2017-12-08T10:02:12.803Z,87.93
2017-12-08T10:04:41.938Z,83.10
2017-12-08T10:07:09.771Z,89.33
2017-12-08T10:09:37.601Z,106.07
2017-12-08T10:12:06.323Z,92.60
2017-12-08T10:14:34.112Z,86.43
2017-12-08T10:17:01.893Z,89.50
2017-12-08T10:19:29.731Z,83.40
2017-12-08T10:21:57.596Z,87.30
2017-12-08T10:24:25.311Z,87.93
2017-12-08T10:26:53.135Z,85.23
2017-12-08T10:29:20.906Z,90.03
2017-12-08T10:31:48.661Z,92.20
2017-12-08T10:34:16.527Z,80.60
2017-12-08T10:36:44.276Z,90.07
2017-12-08T10:39:12.043Z,87.07
2017-12-08T10:41:39.804Z,83.27
2017-12-08T10:44:07.610Z,84.93
2017-12-08T10:46:35.393Z,93.77
2017-12-08T10:49:03.187Z,99.67
2017-12-08T10:51:30.985Z,102.23
2017-12-08T10:53:58.819Z,97.77
2017-12-08T10:56:26.654Z,92.10
2017-12-08T10:58:54.388Z,94.17
2017-12-08T11:01:22.184Z,96.63
2017-12-08T11:03:49.911Z,95.97
2017-12-08T11:06:18.440Z,96.20
2017-12-08T11:08:46.197Z,93.97
2017-12-08T11:11:14.115Z,95.53
2017-12-08T11:13:41.899Z,95.57
2017-12-08T11:16:09.794Z,94.73
2017-12-08T11:18:37.979Z,96.07
2017-12-08T11:21:06.768Z,98.40
2017-12-08T11:23:34.576Z,95.33
2017-12-08T11:26:02.389Z,90.53
2017-12-08T11:28:30.226Z,94.50
2017-12-08T11:30:58.769Z,105.20
2017-12-08T11:33:26.496Z,93.27
2017-12-08T11:35:54.307Z,106.93
2017-12-08T11:38:22.056Z,94.60
2017-12-08T11:40:49.870Z,93.63
2017-12-08T11:43:17.708Z,98.00
2017-12-08T11:45:45.518Z,100.33
2017-12-08T11:48:14.054Z,98.80
2017-12-08T11:50:41.842Z,98.70
2017-12-08T11:53:09.600Z,104.37
2017-12-08T11:55:37.438Z,94.20
2017-12-08T11:58:05.168Z,105.97
2017-12-08T12:00:32.973Z,104.27
2017-12-08T12:03:00.766Z,98.53
2017-12-08T12:05:28.661Z,107.30
2017-12-08T12:07:56.403Z,101.27
2017-12-08T12:10:24.183Z,105.97
2017-12-08T12:12:51.920Z,105.63
2017-12-08T12:15:19.767Z,106.37
2017-12-08T12:17:47.565Z,109.17
2017-12-08T12:20:15.303Z,112.40
2017-12-08T12:22:43.049Z,117.37
2017-12-08T12:25:10.775Z,106.93
2017-12-08T12:27:38.665Z,115.50
2017-12-08T12:30:06.388Z,116.43
2017-12-08T12:32:34.186Z,111.10
2017-12-08T12:35:01.926Z,114.63
2017-12-08T12:37:29.679Z,108.80
2017-12-08T12:39:57.407Z,99.93
2017-12-08T12:42:32.987Z,113.60
2017-12-08T12:45:00.877Z,104.90
2017-12-08T12:47:28.610Z,108.33
2017-12-08T12:49:56.446Z,112.37
2017-12-08T12:52:24.234Z,114.00
2017-12-08T12:54:52.043Z,113.73
2017-12-08T12:57:19.806Z,111.20
2017-12-08T12:59:47.531Z,109.10
2017-12-08T13:02:15.297Z,101.77
2017-12-08T13:04:43.045Z,113.57
2017-12-08T13:07:10.825Z,116.77
2017-12-08T13:09:38.549Z,117.30
2017-12-08T13:12:06.499Z,114.87
2017-12-08T13:14:34.224Z,109.33
2017-12-08T13:17:02.012Z,106.30
2017-12-08T13:19:29.801Z,111.40
2017-12-08T13:21:57.604Z,107.83
2017-12-08T13:24:25.400Z,105.93
2017-12-08T13:26:53.959Z,113.17
2017-12-08T13:29:21.770Z,103.73
2017-12-08T13:31:49.497Z,116.00
2017-12-08T13:34:17.280Z,100.23
2017-12-08T13:36:46.299Z,104.27
2017-12-08T13:39:14.172Z,110.47
2017-12-08T13:41:41.951Z,99.17
2017-12-08T13:44:09.677Z,101.53
2017-12-08T13:46:37.409Z,101.90
2017-12-08T13:49:05.182Z,105.77
2017-12-08T13:51:32.907Z,111.00
2017-12-08T13:54:12.429Z,118.90
2017-12-08T13:56:52.747Z,113.33
2017-12-08T13:59:20.545Z,111.70
2017-12-08T14:01:48.303Z,115.27
2017-12-08T14:04:16.067Z,104.07
2017-12-08T14:06:43.866Z,102.03
2017-12-08T14:09:12.396Z,116.03
2017-12-08T14:11:40.198Z,107.60
2017-12-08T14:14:07.987Z,105.20
2017-12-08T14:16:35.776Z,100.90
2017-12-08T14:19:03.620Z,111.80
2017-12-08T14:21:32.135Z,111.07
2017-12-08T14:23:59.912Z,113.63
2017-12-08T14:26:28.418Z,115.20
2017-12-08T14:28:56.210Z,118.53
2017-12-08T14:31:24.780Z,110.57
2017-12-08T14:33:52.607Z,115.27
2017-12-08T14:36:20.457Z,120.53
2017-12-08T14:38:48.187Z,111.37
2017-12-08T14:44:37.747Z,108.20
2017-12-08T14:47:05.642Z,115.53
2017-12-08T14:49:33.608Z,125.73
2017-12-08T14:52:01.392Z,123.10
2017-12-08T14:54:29.183Z,104.70
2017-12-08T14:56:57.717Z,119.07
2017-12-08T14:59:25.631Z,114.23
2017-12-08T15:01:54.297Z,114.23
2017-12-08T15:04:22.153Z,118.63
2017-12-08T15:06:50.056Z,112.03
2017-12-08T15:09:17.899Z,117.60
2017-12-08T15:11:45.827Z,121.00
2017-12-08T15:14:13.843Z,114.80
2017-12-08T15:16:42.555Z,124.23
2017-12-08T15:19:10.448Z,106.10
2017-12-08T15:21:38.517Z,129.00
2017-12-08T15:31:06.107Z,121.30
2017-12-08T15:33:33.948Z,128.83
2017-12-08T15:36:02.690Z,127.53
2017-12-08T15:38:31.537Z,125.97
2017-12-08T15:40:59.527Z,127.47
2017-12-08T15:43:27.373Z,124.93
2017-12-08T15:45:55.223Z,125.23
2017-12-08T15:48:23.909Z,115.60
2017-12-08T15:50:54.848Z,133.17
2017-12-08T15:53:24.312Z,134.87
2017-12-08T15:55:52.320Z,134.43
2017-12-08T16:08:44.170Z,127.20
2017-12-08T16:11:17.151Z,130.87
2017-12-08T16:13:44.956Z,126.53
2017-12-08T16:16:12.778Z,120.33
2017-12-08T16:18:40.751Z,123.53
2017-12-08T16:21:09.673Z,130.40
2017-12-08T16:23:38.346Z,124.77
2017-12-08T16:26:06.108Z,129.13
2017-12-08T16:28:33.937Z,124.37
2017-12-08T16:31:01.711Z,125.73
2017-12-08T16:33:42.409Z,132.27
2017-12-08T16:36:11.017Z,127.53
2017-12-08T16:38:38.914Z,121.40
2017-12-08T16:41:06.741Z,123.23
2017-12-08T16:43:34.700Z,117.30
2017-12-08T16:46:04.148Z,105.47
2017-12-08T16:48:32.005Z,102.70
2017-12-08T16:50:59.869Z,105.10
2017-12-08T16:53:27.766Z,105.13
2017-12-08T16:55:59.368Z,104.90
2017-12-08T16:58:27.284Z,104.27
2017-12-08T17:00:55.379Z,93.20
2017-12-08T17:03:38.483Z,110.40
2017-12-08T17:06:06.516Z,108.10
2017-12-08T18:17:57.368Z,129.23
2017-12-08T18:23:55.822Z,116.77
2017-12-08T18:26:27.453Z,117.53
2017-12-08T18:28:57.404Z,123.90
2017-12-08T18:31:25.307Z,121.30
2017-12-08T21:01:36.045Z,131.50
2017-12-08T21:11:08.697Z,127.10
2017-12-08T21:13:37.199Z,135.10
2017-12-08T22:01:46.121Z,134.93
2017-12-08T22:04:41.979Z,139.77
2017-12-08T22:07:14.418Z,135.80
2017-12-08T22:09:45.969Z,126.90
2017-12-08T22:12:14.471Z,127.33
2017-12-08T22:14:42.734Z,127.33
2017-12-08T22:17:14.140Z,125.27
2017-12-08T22:29:51.738Z,113.47
2017-12-08T22:32:20.369Z,110.70
2017-12-08T22:34:48.250Z,116.30
2017-12-08T22:37:16.196Z,107.00
2017-12-08T22:39:44.008Z,107.97
2017-12-08T22:42:12.165Z,102.73
2017-12-08T22:44:40.274Z,115.37
2017-12-08T22:47:08.171Z,103.17
2017-12-08T22:49:36.110Z,108.23
2017-12-08T22:52:43.928Z,102.20
